createdAt,value
2018-10-07T00:00:51.916Z,1003.82
2018-10-07T00:01:51.899Z,1003.84
2018-10-07T00:02:51.879Z,1003.83
2018-10-07T00:03:51.861Z,1003.83
2018-10-07T00:04:51.843Z,1003.83
2018-10-07T00:05:51.827Z,1003.86
2018-10-07T00:06:51.806Z,1003.88
2018-10-07T00:07:51.788Z,1003.94
2018-10-07T00:08:51.772Z,1004.00
2018-10-07T00:09:51.752Z,1004.04
2018-10-07T00:10:51.736Z,1004.07
2018-10-07T00:11:51.719Z,1004.13
2018-10-07T00:12:51.698Z,1004.10
2018-10-07T00:13:51.678Z,1004.14
2018-10-07T00:14:51.662Z,1004.24
2018-10-07T00:15:51.643Z,1004.23
2018-10-07T00:16:51.624Z,1004.29
2018-10-07T00:17:51.608Z,1004.36
2018-10-07T00:18:51.588Z,1004.37
2018-10-07T00:19:51.570Z,1004.40
2018-10-07T00:20:51.552Z,1004.36
2018-10-07T00:21:51.540Z,1004.36
2018-10-07T00:22:51.514Z,1004.38
2018-10-07T00:23:51.497Z,1004.38
2018-10-07T00:24:51.482Z,1004.41
2018-10-07T00:25:51.460Z,1004.40
2018-10-07T00:26:51.444Z,1004.41
2018-10-07T00:27:51.424Z,1004.40
2018-10-07T00:28:51.406Z,1004.38
2018-10-07T00:29:51.388Z,1004.38
2018-10-07T00:30:51.375Z,1004.43
2018-10-07T00:31:51.350Z,1004.43
2018-10-07T00:32:51.333Z,1004.44
2018-10-07T00:33:51.315Z,1004.45
2018-10-07T00:34:51.295Z,1004.47
2018-10-07T00:35:51.277Z,1004.50
2018-10-07T00:36:51.260Z,1004.51
2018-10-07T00:37:51.251Z,1004.53
2018-10-07T00:38:51.222Z,1004.56
2018-10-07T00:39:51.204Z,1004.56
2018-10-07T00:40:51.192Z,1004.55
2018-10-07T00:41:51.170Z,1004.60
2018-10-07T00:42:51.151Z,1004.67
2018-10-07T00:43:51.132Z,1004.65
2018-10-07T00:44:51.115Z,1004.71
2018-10-07T00:45:51.096Z,1004.71
2018-10-07T00:46:51.078Z,1004.81
2018-10-07T00:47:51.058Z,1004.80
2018-10-07T00:48:51.044Z,1004.86
2018-10-07T00:49:51.022Z,1004.89
2018-10-07T00:50:51.006Z,1004.91
2018-10-07T00:51:50.987Z,1004.93
2018-10-07T00:52:50.968Z,1004.97
2018-10-07T00:53:50.949Z,1004.97
2018-10-07T00:54:50.933Z,1004.97
2018-10-07T00:55:50.939Z,1004.95
2018-10-07T00:56:50.893Z,1005.01
2018-10-07T00:57:50.878Z,1004.99
2018-10-07T00:58:50.857Z,1005.03
2018-10-07T00:59:50.840Z,1005.04
2018-10-07T01:00:50.823Z,1005.03
2018-10-07T01:01:50.803Z,1005.08
2018-10-07T01:02:50.784Z,1005.08
2018-10-07T01:03:50.767Z,1005.09
2018-10-07T01:04:50.748Z,1005.12
2018-10-07T01:05:50.737Z,1005.18
2018-10-07T01:06:50.712Z,1005.17
2018-10-07T01:07:50.692Z,1005.19
2018-10-07T01:08:50.678Z,1005.17
2018-10-07T01:09:50.656Z,1005.19
2018-10-07T01:10:50.656Z,1005.26
2018-10-07T01:11:50.620Z,1005.24
2018-10-07T01:12:50.601Z,1005.30
2018-10-07T01:13:50.583Z,1005.36
2018-10-07T01:14:50.564Z,1005.43
2018-10-07T01:15:50.547Z,1005.42
2018-10-07T01:16:50.526Z,1005.47
2018-10-07T01:17:50.513Z,1005.42
2018-10-07T01:18:50.490Z,1005.41
2018-10-07T01:19:50.472Z,1005.42
2018-10-07T01:20:50.456Z,1005.44
2018-10-07T01:21:50.438Z,1005.44
2018-10-07T01:22:50.415Z,1005.43
2018-10-07T01:23:50.399Z,1005.47
2018-10-07T01:24:50.380Z,1005.41
2018-10-07T01:25:50.362Z,1005.45
2018-10-07T01:26:50.343Z,1005.47
2018-10-07T01:27:50.328Z,1005.47
2018-10-07T01:28:50.308Z,1005.51
2018-10-07T01:29:50.291Z,1005.53
2018-10-07T01:30:50.274Z,1005.55
2018-10-07T01:31:50.255Z,1005.55
2018-10-07T01:32:50.236Z,1005.54
2018-10-07T01:33:50.215Z,1005.57
2018-10-07T01:34:50.197Z,1005.59
2018-10-07T01:35:50.182Z,1005.55
2018-10-07T01:36:50.163Z,1005.52
2018-10-07T01:37:50.143Z,1005.52
2018-10-07T01:38:50.122Z,1005.49
2018-10-07T01:39:50.105Z,1005.53
2018-10-07T01:40:50.086Z,1005.54
2018-10-07T01:41:50.072Z,1005.52
2018-10-07T01:42:50.052Z,1005.59
2018-10-07T01:43:50.032Z,1005.58
2018-10-07T01:44:50.013Z,1005.61
2018-10-07T01:45:49.994Z,1005.63
2018-10-07T01:46:49.976Z,1005.63
2018-10-07T01:47:49.958Z,1005.65
2018-10-07T01:48:49.940Z,1005.70
2018-10-07T01:49:49.921Z,1005.72
2018-10-07T01:50:49.929Z,1005.72
2018-10-07T01:51:49.911Z,1005.73
2018-10-07T01:52:49.867Z,1005.78
2018-10-07T01:53:49.847Z,1005.78
2018-10-07T01:54:49.832Z,1005.82
2018-10-07T01:55:49.816Z,1005.78
2018-10-07T01:56:49.794Z,1005.77
2018-10-07T01:57:49.779Z,1005.80
2018-10-07T01:58:49.756Z,1005.79
2018-10-07T01:59:49.736Z,1005.79
2018-10-07T02:00:49.720Z,1005.82
2018-10-07T02:01:49.701Z,1005.91
2018-10-07T02:02:49.682Z,1006.00
2018-10-07T02:03:49.664Z,1006.01
2018-10-07T02:04:49.646Z,1006.08
2018-10-07T02:05:49.628Z,1006.10
2018-10-07T02:06:49.610Z,1006.15
2018-10-07T02:07:49.591Z,1006.13
2018-10-07T02:08:49.572Z,1006.22
2018-10-07T02:09:49.554Z,1006.18
2018-10-07T02:10:49.537Z,1006.20
2018-10-07T02:11:49.520Z,1006.29
2018-10-07T02:12:49.499Z,1006.31
2018-10-07T02:13:49.524Z,1006.37
2018-10-07T02:14:49.462Z,1006.33
2018-10-07T02:15:49.444Z,1006.35
2018-10-07T02:16:49.425Z,1006.30
2018-10-07T02:17:49.408Z,1006.38
2018-10-07T02:18:49.391Z,1006.48
2018-10-07T02:19:49.369Z,1006.49
2018-10-07T02:20:49.352Z,1006.45
2018-10-07T02:21:49.333Z,1006.50
2018-10-07T02:22:49.316Z,1006.48
2018-10-07T02:23:49.296Z,1006.52
2018-10-07T02:24:49.279Z,1006.55
2018-10-07T02:25:49.260Z,1006.53
2018-10-07T02:26:49.239Z,1006.51
2018-10-07T02:27:49.242Z,1006.51
2018-10-07T02:28:49.205Z,1006.47
2018-10-07T02:29:49.185Z,1006.52
2018-10-07T02:30:49.170Z,1006.55
2018-10-07T02:31:49.151Z,1006.56
2018-10-07T02:32:49.127Z,1006.60
2018-10-07T02:33:49.143Z,1006.66
2018-10-07T02:34:49.092Z,1006.75
2018-10-07T02:35:49.074Z,1006.76
2018-10-07T02:36:49.057Z,1006.84
2018-10-07T02:37:49.037Z,1006.82
2018-10-07T02:38:49.018Z,1006.80
2018-10-07T02:39:49.000Z,1006.73
2018-10-07T02:40:48.980Z,1006.73
2018-10-07T02:41:48.963Z,1006.72
2018-10-07T02:42:48.943Z,1006.73
2018-10-07T02:43:48.929Z,1006.68
2018-10-07T02:44:48.909Z,1006.63
2018-10-07T02:45:48.892Z,1006.67
2018-10-07T02:46:48.869Z,1006.68
2018-10-07T02:47:48.852Z,1006.72
2018-10-07T02:48:48.833Z,1006.85
2018-10-07T02:49:48.815Z,1006.99
2018-10-07T02:50:48.793Z,1007.10
2018-10-07T02:51:48.775Z,1007.16
2018-10-07T02:52:48.757Z,1007.23
2018-10-07T02:53:48.737Z,1007.30
2018-10-07T02:54:48.719Z,1007.31
2018-10-07T02:55:48.703Z,1007.32
2018-10-07T02:56:48.688Z,1007.29
2018-10-07T02:57:48.664Z,1007.28
2018-10-07T02:58:48.647Z,1007.29
2018-10-07T02:59:48.626Z,1007.29
2018-10-07T03:00:48.608Z,1007.34
2018-10-07T03:01:48.589Z,1007.37
2018-10-07T03:02:48.571Z,1007.41
2018-10-07T03:03:48.551Z,1007.42
2018-10-07T03:04:48.599Z,1007.41
2018-10-07T03:05:48.514Z,1007.40
2018-10-07T03:06:48.496Z,1007.41
2018-10-07T03:07:48.477Z,1007.43
2018-10-07T03:08:48.458Z,1007.43
2018-10-07T03:09:48.439Z,1007.46
2018-10-07T03:10:48.419Z,1007.50
2018-10-07T03:11:48.400Z,1007.54
2018-10-07T03:12:48.383Z,1007.51
2018-10-07T03:13:48.364Z,1007.49
2018-10-07T03:14:48.345Z,1007.56
2018-10-07T03:15:48.326Z,1007.51
2018-10-07T03:16:48.311Z,1007.53
2018-10-07T03:17:48.289Z,1007.56
2018-10-07T03:18:48.268Z,1007.57
2018-10-07T03:19:48.252Z,1007.55
2018-10-07T03:20:48.232Z,1007.68
2018-10-07T03:21:48.216Z,1007.70
2018-10-07T03:22:48.194Z,1007.75
2018-10-07T03:23:48.175Z,1007.79
2018-10-07T03:24:48.159Z,1007.89
2018-10-07T03:25:48.138Z,1007.83
2018-10-07T03:26:48.118Z,1007.87
2018-10-07T03:27:48.099Z,1007.88
2018-10-07T03:28:48.089Z,1007.89
2018-10-07T03:29:48.062Z,1007.87
2018-10-07T03:30:48.041Z,1007.92
2018-10-07T03:31:48.026Z,1007.94
2018-10-07T03:32:48.005Z,1007.90
2018-10-07T03:33:47.988Z,1007.94
2018-10-07T03:34:47.966Z,1007.98
2018-10-07T03:35:47.950Z,1007.97
2018-10-07T03:36:47.934Z,1007.98
2018-10-07T03:37:47.913Z,1008.04
2018-10-07T03:38:47.890Z,1008.04
2018-10-07T03:39:47.871Z,1008.16
2018-10-07T03:40:47.854Z,1008.21
2018-10-07T03:41:47.833Z,1008.10
2018-10-07T03:42:47.817Z,1008.15
2018-10-07T03:43:47.797Z,1008.15
2018-10-07T03:44:47.777Z,1008.17
2018-10-07T03:45:47.758Z,1008.17
2018-10-07T03:46:47.740Z,1008.22
2018-10-07T03:47:47.772Z,1008.22
2018-10-07T03:48:47.701Z,1008.23
2018-10-07T03:49:47.682Z,1008.30
2018-10-07T03:50:47.661Z,1008.27
2018-10-07T03:51:47.642Z,1008.28
2018-10-07T03:52:47.628Z,1008.29
2018-10-07T03:53:47.605Z,1008.28
2018-10-07T03:54:47.585Z,1008.33
2018-10-07T03:55:47.566Z,1008.37
2018-10-07T03:56:47.547Z,1008.38
2018-10-07T03:57:47.528Z,1008.38
2018-10-07T03:58:47.509Z,1008.37
2018-10-07T03:59:47.490Z,1008.36
2018-10-07T04:00:47.471Z,1008.33
2018-10-07T04:01:47.453Z,1008.35
2018-10-07T04:02:47.432Z,1008.37
2018-10-07T04:03:47.425Z,1008.36
2018-10-07T04:04:47.393Z,1008.39
2018-10-07T04:05:47.375Z,1008.35
2018-10-07T04:06:47.356Z,1008.38
2018-10-07T04:07:47.335Z,1008.41
2018-10-07T04:08:47.316Z,1008.38
2018-10-07T04:09:47.332Z,1008.43
2018-10-07T04:10:47.281Z,1008.40
2018-10-07T04:11:47.257Z,1008.43
2018-10-07T04:12:47.239Z,1008.44
2018-10-07T04:13:47.220Z,1008.49
2018-10-07T04:14:47.203Z,1008.49
2018-10-07T04:15:47.181Z,1008.52
2018-10-07T04:16:47.162Z,1008.52
2018-10-07T04:17:47.144Z,1008.57
2018-10-07T04:18:47.127Z,1008.59
2018-10-07T04:19:47.104Z,1008.59
2018-10-07T04:20:47.087Z,1008.60
2018-10-07T04:21:47.067Z,1008.60
2018-10-07T04:22:47.046Z,1008.58
2018-10-07T04:23:47.027Z,1008.55
2018-10-07T04:24:47.010Z,1008.59
2018-10-07T04:25:46.990Z,1008.61
2018-10-07T04:26:46.969Z,1008.58
2018-10-07T04:27:46.950Z,1008.63
2018-10-07T04:28:46.930Z,1008.58
2018-10-07T04:29:46.912Z,1008.60
2018-10-07T04:30:46.892Z,1008.64
2018-10-07T04:31:46.873Z,1008.66
2018-10-07T04:32:46.856Z,1008.64
2018-10-07T04:33:46.836Z,1008.64
2018-10-07T04:34:46.813Z,1008.64
2018-10-07T04:35:46.797Z,1008.65
2018-10-07T04:36:46.778Z,1008.68
2018-10-07T04:37:46.758Z,1008.69
2018-10-07T04:38:46.739Z,1008.73
2018-10-07T04:39:46.778Z,1008.74
2018-10-07T04:40:46.699Z,1008.78
2018-10-07T04:41:46.679Z,1008.70
2018-10-07T04:42:46.663Z,1008.74
2018-10-07T04:43:46.640Z,1008.75
2018-10-07T04:44:46.621Z,1008.72
2018-10-07T04:45:46.600Z,1008.75
2018-10-07T04:46:46.580Z,1008.76
2018-10-07T04:47:46.561Z,1008.71
2018-10-07T04:48:46.544Z,1008.74
2018-10-07T04:49:46.526Z,1008.76
2018-10-07T04:50:46.503Z,1008.78
2018-10-07T04:51:46.485Z,1008.75
2018-10-07T04:52:46.466Z,1008.75
2018-10-07T04:53:46.447Z,1008.72
2018-10-07T04:54:46.436Z,1008.81
2018-10-07T04:55:46.406Z,1008.81
2018-10-07T04:56:46.387Z,1008.81
2018-10-07T04:57:46.368Z,1008.86
2018-10-07T04:58:46.349Z,1008.81
2018-10-07T04:59:46.328Z,1008.84
2018-10-07T05:00:46.311Z,1008.86
2018-10-07T05:01:46.291Z,1008.90
2018-10-07T05:02:46.270Z,1008.86
2018-10-07T05:03:46.251Z,1008.95
2018-10-07T05:04:46.230Z,1008.96
2018-10-07T05:05:46.216Z,1009.01
2018-10-07T05:06:46.193Z,1009.05
2018-10-07T05:07:46.174Z,1009.04
2018-10-07T05:08:46.154Z,1009.06
2018-10-07T05:09:46.134Z,1009.09
2018-10-07T05:10:46.113Z,1009.07
2018-10-07T05:11:46.107Z,1009.15
2018-10-07T05:12:46.165Z,1009.17
2018-10-07T05:13:46.058Z,1009.20
2018-10-07T05:14:46.041Z,1009.25
2018-10-07T05:15:46.024Z,1009.25
2018-10-07T05:16:45.999Z,1009.24
2018-10-07T05:17:45.979Z,1009.26
2018-10-07T05:18:45.962Z,1009.29
2018-10-07T05:19:45.940Z,1009.32
2018-10-07T05:20:45.968Z,1009.30
2018-10-07T05:21:45.900Z,1009.33
2018-10-07T05:22:45.880Z,1009.34
2018-10-07T05:23:45.860Z,1009.35
2018-10-07T05:24:45.845Z,1009.37
2018-10-07T05:25:45.822Z,1009.44
2018-10-07T05:26:45.801Z,1009.45
2018-10-07T05:27:45.782Z,1009.52
2018-10-07T05:28:45.763Z,1009.53
2018-10-07T05:29:45.753Z,1009.58
2018-10-07T05:30:45.723Z,1009.59
2018-10-07T05:31:45.704Z,1009.63
2018-10-07T05:32:45.686Z,1009.65
2018-10-07T05:33:45.666Z,1009.72
2018-10-07T05:34:45.644Z,1009.72
2018-10-07T05:35:45.625Z,1009.74
2018-10-07T05:36:45.606Z,1009.76
2018-10-07T05:37:45.590Z,1009.78
2018-10-07T05:38:45.566Z,1009.77
2018-10-07T05:39:45.545Z,1009.81
2018-10-07T05:40:45.528Z,1009.79
2018-10-07T05:41:45.510Z,1009.85
2018-10-07T05:42:45.490Z,1009.82
2018-10-07T05:43:45.467Z,1009.90
2018-10-07T05:44:45.468Z,1009.90
2018-10-07T05:45:45.430Z,1009.91
2018-10-07T05:46:45.413Z,1009.92
2018-10-07T05:47:45.392Z,1009.96
2018-10-07T05:48:45.370Z,1009.97
2018-10-07T05:49:45.350Z,1010.03
2018-10-07T05:50:45.331Z,1010.06
2018-10-07T05:51:45.309Z,1010.04
2018-10-07T05:52:45.293Z,1010.08
2018-10-07T05:53:45.273Z,1010.08
2018-10-07T05:54:45.251Z,1010.10
2018-10-07T05:55:45.317Z,1010.13
2018-10-07T05:56:45.211Z,1010.17
2018-10-07T05:57:45.193Z,1010.22
2018-10-07T05:58:45.172Z,1010.19
2018-10-07T05:59:45.152Z,1010.25
2018-10-07T06:00:45.141Z,1010.29
2018-10-07T06:01:45.140Z,1010.27
2018-10-07T06:02:45.136Z,1010.29
2018-10-07T06:03:45.074Z,1010.36
2018-10-07T06:04:45.053Z,1010.35
2018-10-07T06:05:45.042Z,1010.39
2018-10-07T06:06:45.014Z,1010.36
2018-10-07T06:07:44.995Z,1010.36
2018-10-07T06:08:44.975Z,1010.42
2018-10-07T06:09:44.956Z,1010.43
2018-10-07T06:10:44.934Z,1010.48
2018-10-07T06:11:44.915Z,1010.53
2018-10-07T06:12:44.894Z,1010.59
2018-10-07T06:13:44.876Z,1010.62
2018-10-07T06:14:44.884Z,1010.67
2018-10-07T06:15:44.834Z,1010.70
2018-10-07T06:16:44.817Z,1010.70
2018-10-07T06:17:44.798Z,1010.67
2018-10-07T06:18:44.776Z,1010.71
2018-10-07T06:19:44.761Z,1010.79
2018-10-07T06:20:44.737Z,1010.74
2018-10-07T06:21:44.718Z,1010.78
2018-10-07T06:22:44.696Z,1010.81
2018-10-07T06:23:44.676Z,1010.87
2018-10-07T06:24:44.662Z,1010.92
2018-10-07T06:25:44.637Z,1010.93
2018-10-07T06:26:44.620Z,1010.98
2018-10-07T06:27:44.600Z,1010.97
2018-10-07T06:28:44.579Z,1010.99
2018-10-07T06:29:44.612Z,1010.99
2018-10-07T06:30:44.539Z,1011.04
2018-10-07T06:31:44.516Z,1011.01
2018-10-07T06:32:44.498Z,1011.01
2018-10-07T06:33:44.481Z,1011.07
2018-10-07T06:34:44.458Z,1011.01
2018-10-07T06:35:44.438Z,1011.02
2018-10-07T06:36:44.428Z,1011.03
2018-10-07T06:37:44.403Z,1010.98
2018-10-07T06:38:44.477Z,1011.06
2018-10-07T06:39:44.405Z,1011.14
2018-10-07T06:40:44.349Z,1011.13
2018-10-07T06:41:44.319Z,1011.17
2018-10-07T06:42:44.298Z,1011.21
2018-10-07T06:43:44.278Z,1011.25
2018-10-07T06:44:44.257Z,1011.28
2018-10-07T06:45:44.261Z,1011.28
2018-10-07T06:46:44.218Z,1011.28
2018-10-07T06:47:44.199Z,1011.29
2018-10-07T06:48:44.178Z,1011.29
2018-10-07T06:49:44.159Z,1011.34
2018-10-07T06:50:44.139Z,1011.29
2018-10-07T06:51:44.118Z,1011.33
2018-10-07T06:52:44.099Z,1011.36
2018-10-07T06:53:44.079Z,1011.34
2018-10-07T06:54:44.062Z,1011.35
2018-10-07T06:55:44.039Z,1011.40
2018-10-07T06:56:44.021Z,1011.41
2018-10-07T06:57:43.999Z,1011.43
2018-10-07T06:58:43.984Z,1011.51
2018-10-07T06:59:44.067Z,1011.52
2018-10-07T07:00:43.940Z,1011.56
2018-10-07T07:01:43.919Z,1011.59
2018-10-07T07:02:43.899Z,1011.58
2018-10-07T07:03:43.879Z,1011.65
2018-10-07T07:04:43.864Z,1011.69
2018-10-07T07:05:43.843Z,1011.69
2018-10-07T07:06:43.819Z,1011.70
2018-10-07T07:07:43.802Z,1011.76
2018-10-07T07:08:43.788Z,1011.78
2018-10-07T07:09:43.761Z,1011.73
2018-10-07T07:10:43.739Z,1011.78
2018-10-07T07:11:43.721Z,1011.74
2018-10-07T07:12:43.700Z,1011.79
2018-10-07T07:13:43.680Z,1011.74
2018-10-07T07:14:43.658Z,1011.73
2018-10-07T07:15:43.640Z,1011.79
2018-10-07T07:16:43.623Z,1011.78
2018-10-07T07:17:43.602Z,1011.82
2018-10-07T07:18:43.581Z,1011.82
2018-10-07T07:19:43.574Z,1011.87
2018-10-07T07:20:43.544Z,1011.84
2018-10-07T07:21:43.524Z,1011.86
2018-10-07T07:22:43.508Z,1011.83
2018-10-07T07:23:43.485Z,1011.79
2018-10-07T07:24:43.464Z,1011.87
2018-10-07T07:25:43.492Z,1011.85
2018-10-07T07:26:43.487Z,1011.89
2018-10-07T07:27:43.401Z,1011.86
2018-10-07T07:28:43.380Z,1011.86
2018-10-07T07:29:43.364Z,1011.88
2018-10-07T07:30:43.340Z,1011.88
2018-10-07T07:31:43.320Z,1011.87
2018-10-07T07:32:43.303Z,1011.89
2018-10-07T07:33:43.279Z,1011.86
2018-10-07T07:34:43.262Z,1011.85
2018-10-07T07:35:43.243Z,1011.87
2018-10-07T07:36:43.260Z,1011.90
2018-10-07T07:37:43.201Z,1011.90
2018-10-07T07:38:43.178Z,1011.89
2018-10-07T07:39:43.163Z,1011.96
2018-10-07T07:40:43.140Z,1011.97
2018-10-07T07:41:43.120Z,1011.98
2018-10-07T07:42:43.101Z,1011.98
2018-10-07T07:43:43.080Z,1011.97
2018-10-07T07:44:43.060Z,1011.99
2018-10-07T07:45:43.040Z,1011.94
2018-10-07T07:46:43.019Z,1011.96
2018-10-07T07:47:42.999Z,1011.92
2018-10-07T07:48:42.980Z,1011.96
2018-10-07T07:49:42.960Z,1011.91
2018-10-07T07:50:42.940Z,1011.96
2018-10-07T07:51:42.920Z,1012.00
2018-10-07T07:52:42.900Z,1012.03
2018-10-07T07:53:42.879Z,1012.04
2018-10-07T07:54:42.860Z,1012.12
2018-10-07T07:55:42.841Z,1012.11
2018-10-07T07:56:42.856Z,1012.19
2018-10-07T07:57:42.799Z,1012.18
2018-10-07T07:58:42.778Z,1012.22
2018-10-07T07:59:42.760Z,1012.24
2018-10-07T08:00:42.760Z,1012.27
2018-10-07T08:01:42.722Z,1012.30
2018-10-07T08:02:42.703Z,1012.30
2018-10-07T08:03:42.679Z,1012.28
2018-10-07T08:04:42.660Z,1012.29
2018-10-07T08:05:42.640Z,1012.34
2018-10-07T08:06:42.629Z,1012.36
2018-10-07T08:07:42.600Z,1012.35
2018-10-07T08:08:42.614Z,1012.40
2018-10-07T08:09:42.564Z,1012.49
2018-10-07T08:10:42.540Z,1012.51
2018-10-07T08:11:42.519Z,1012.55
2018-10-07T08:12:42.500Z,1012.59
2018-10-07T08:13:42.478Z,1012.54
2018-10-07T08:14:42.458Z,1012.58
2018-10-07T08:15:42.440Z,1012.63
2018-10-07T08:16:42.421Z,1012.59
2018-10-07T08:17:42.472Z,1012.66
2018-10-07T08:18:42.378Z,1012.69
2018-10-07T08:19:42.364Z,1012.71
2018-10-07T08:20:42.339Z,1012.71
2018-10-07T08:21:42.321Z,1012.70
2018-10-07T08:22:42.299Z,1012.74
2018-10-07T08:23:42.321Z,1012.76
2018-10-07T08:24:42.265Z,1012.78
2018-10-07T08:25:42.241Z,1012.77
2018-10-07T08:26:42.220Z,1012.81
2018-10-07T08:27:42.200Z,1012.77
2018-10-07T08:28:42.179Z,1012.73
2018-10-07T08:29:42.235Z,1012.72
2018-10-07T08:30:42.142Z,1012.75
2018-10-07T08:31:42.119Z,1012.78
2018-10-07T08:32:42.101Z,1012.84
2018-10-07T08:33:42.085Z,1012.88
2018-10-07T08:34:42.065Z,1012.90
2018-10-07T08:35:42.040Z,1012.95
2018-10-07T08:36:42.022Z,1012.95
2018-10-07T08:37:42.000Z,1012.97
2018-10-07T08:38:41.981Z,1012.99
2018-10-07T08:39:41.962Z,1012.99
2018-10-07T08:40:41.943Z,1012.98
2018-10-07T08:41:41.921Z,1012.97
2018-10-07T08:42:41.901Z,1012.97
2018-10-07T08:43:41.919Z,1012.97
2018-10-07T08:44:41.862Z,1012.94
2018-10-07T08:45:41.841Z,1012.98
2018-10-07T08:46:41.821Z,1012.99
2018-10-07T08:47:41.804Z,1012.97
2018-10-07T08:48:41.820Z,1013.02
2018-10-07T08:49:41.782Z,1013.02
2018-10-07T08:50:41.741Z,1013.00
2018-10-07T08:51:41.723Z,1013.01
2018-10-07T08:52:41.702Z,1013.03
2018-10-07T08:53:41.683Z,1013.01
2018-10-07T08:54:41.663Z,1013.04
2018-10-07T08:55:41.644Z,1013.02
2018-10-07T08:56:41.623Z,1013.03
2018-10-07T08:57:41.606Z,1012.99
2018-10-07T08:58:41.583Z,1013.00
2018-10-07T08:59:41.563Z,1013.02
2018-10-07T09:00:41.542Z,1013.06
2018-10-07T09:01:41.524Z,1013.12
2018-10-07T09:02:41.503Z,1013.13
2018-10-07T09:03:41.486Z,1013.16
2018-10-07T09:04:41.468Z,1013.15
2018-10-07T09:05:41.444Z,1013.18
2018-10-07T09:06:41.423Z,1013.26
2018-10-07T09:07:41.416Z,1013.24
2018-10-07T09:08:41.449Z,1013.25
2018-10-07T09:09:41.370Z,1013.24
2018-10-07T09:10:41.344Z,1013.21
2018-10-07T09:11:41.334Z,1013.28
2018-10-07T09:12:41.306Z,1013.22
2018-10-07T09:13:41.299Z,1013.25
2018-10-07T09:14:41.305Z,1013.22
2018-10-07T09:15:41.248Z,1013.20
2018-10-07T09:16:41.229Z,1013.22
2018-10-07T09:17:41.214Z,1013.24
2018-10-07T09:18:41.187Z,1013.23
2018-10-07T09:19:41.167Z,1013.27
2018-10-07T09:20:41.147Z,1013.25
2018-10-07T09:21:41.161Z,1013.28
2018-10-07T09:22:41.107Z,1013.26
2018-10-07T09:23:41.088Z,1013.31
2018-10-07T09:24:41.068Z,1013.26
2018-10-07T09:25:41.047Z,1013.35
2018-10-07T09:26:41.048Z,1013.32
2018-10-07T09:27:41.116Z,1013.32
2018-10-07T09:28:40.989Z,1013.32
2018-10-07T09:29:40.973Z,1013.29
2018-10-07T09:30:40.949Z,1013.29
2018-10-07T09:31:40.930Z,1013.33
2018-10-07T09:32:40.941Z,1013.27
2018-10-07T09:33:40.892Z,1013.26
2018-10-07T09:34:40.870Z,1013.34
2018-10-07T09:35:40.851Z,1013.34
2018-10-07T09:36:40.924Z,1013.38
2018-10-07T09:37:40.812Z,1013.43
2018-10-07T09:38:40.794Z,1013.44
2018-10-07T09:39:40.779Z,1013.41
2018-10-07T09:40:40.754Z,1013.38
2018-10-07T09:41:40.733Z,1013.42
2018-10-07T09:42:40.712Z,1013.42
2018-10-07T09:43:40.696Z,1013.47
2018-10-07T09:44:40.680Z,1013.47
2018-10-07T09:45:40.664Z,1013.46
2018-10-07T09:46:40.649Z,1013.54
2018-10-07T09:47:40.621Z,1013.52
2018-10-07T09:48:40.603Z,1013.49
2018-10-07T09:49:40.582Z,1013.49
2018-10-07T09:50:40.556Z,1013.49
2018-10-07T09:51:40.556Z,1013.49
2018-10-07T09:52:40.517Z,1013.50
2018-10-07T09:53:40.524Z,1013.51
2018-10-07T09:54:40.478Z,1013.48
2018-10-07T09:55:40.457Z,1013.53
2018-10-07T09:56:40.438Z,1013.53
2018-10-07T09:57:40.418Z,1013.55
2018-10-07T09:58:40.401Z,1013.55
2018-10-07T09:59:40.381Z,1013.62
2018-10-07T10:00:40.359Z,1013.57
2018-10-07T10:01:40.340Z,1013.59
2018-10-07T10:02:40.319Z,1013.57
2018-10-07T10:03:40.302Z,1013.55
2018-10-07T10:04:40.352Z,1013.63
2018-10-07T10:05:40.262Z,1013.62
2018-10-07T10:06:40.241Z,1013.64
2018-10-07T10:07:40.221Z,1013.67
2018-10-07T10:08:40.209Z,1013.72
2018-10-07T10:09:40.185Z,1013.71
2018-10-07T10:10:40.167Z,1013.75
2018-10-07T10:11:40.144Z,1013.69
2018-10-07T10:12:40.128Z,1013.70
2018-10-07T10:13:40.105Z,1013.70
2018-10-07T10:14:40.093Z,1013.69
2018-10-07T10:15:40.073Z,1013.69
2018-10-07T10:16:40.047Z,1013.68
2018-10-07T10:17:40.110Z,1013.67
2018-10-07T10:18:40.010Z,1013.70
2018-10-07T10:19:40.062Z,1013.66
2018-10-07T10:20:39.972Z,1013.64
2018-10-07T10:21:39.954Z,1013.66
2018-10-07T10:22:39.929Z,1013.71
2018-10-07T10:23:39.910Z,1013.67
2018-10-07T10:24:39.896Z,1013.70
2018-10-07T10:25:39.879Z,1013.71
2018-10-07T10:26:39.851Z,1013.72
2018-10-07T10:27:39.834Z,1013.69
2018-10-07T10:28:39.811Z,1013.69
2018-10-07T10:29:39.793Z,1013.68
2018-10-07T10:30:39.774Z,1013.65
2018-10-07T10:31:39.778Z,1013.64
2018-10-07T10:32:39.734Z,1013.64
2018-10-07T10:33:39.715Z,1013.68
2018-10-07T10:34:39.697Z,1013.73
2018-10-07T10:35:39.677Z,1013.78
2018-10-07T10:36:39.703Z,1013.79
2018-10-07T10:37:39.636Z,1013.82
2018-10-07T10:38:39.617Z,1013.82
2018-10-07T10:39:39.662Z,1013.82
2018-10-07T10:40:39.576Z,1013.80
2018-10-07T10:41:39.557Z,1013.88
2018-10-07T10:42:39.554Z,1013.86
2018-10-07T10:43:39.521Z,1013.90
2018-10-07T10:44:39.500Z,1013.87
2018-10-07T10:45:39.480Z,1013.87
2018-10-07T10:46:39.460Z,1013.93
2018-10-07T10:47:39.448Z,1013.94
2018-10-07T10:48:39.421Z,1013.98
2018-10-07T10:49:39.403Z,1013.89
2018-10-07T10:50:39.383Z,1013.94
2018-10-07T10:51:39.363Z,1013.92
2018-10-07T10:52:39.343Z,1013.92
2018-10-07T10:53:39.325Z,1013.94
2018-10-07T10:54:39.304Z,1013.92
2018-10-07T10:55:39.283Z,1013.92
2018-10-07T10:56:39.266Z,1013.90
2018-10-07T10:57:39.248Z,1013.92
2018-10-07T10:58:39.227Z,1013.88
2018-10-07T10:59:39.207Z,1013.89
2018-10-07T11:00:39.188Z,1013.90
2018-10-07T11:01:39.174Z,1013.85
2018-10-07T11:02:39.149Z,1013.89
2018-10-07T11:03:39.131Z,1013.88
2018-10-07T11:04:39.183Z,1013.91
2018-10-07T11:05:39.092Z,1013.90
2018-10-07T11:06:39.072Z,1013.93
2018-10-07T11:07:39.052Z,1013.94
2018-10-07T11:08:39.035Z,1013.95
2018-10-07T11:09:39.015Z,1013.92
2018-10-07T11:10:38.996Z,1013.99
2018-10-07T11:11:38.976Z,1013.93
2018-10-07T11:12:38.958Z,1013.95
2018-10-07T11:13:38.942Z,1013.97
2018-10-07T11:14:38.916Z,1013.93
2018-10-07T11:15:38.953Z,1013.93
2018-10-07T11:16:38.878Z,1013.97
2018-10-07T11:17:38.859Z,1013.93
2018-10-07T11:18:38.841Z,1013.93
2018-10-07T11:19:38.821Z,1013.98
2018-10-07T11:20:38.802Z,1013.89
2018-10-07T11:21:38.783Z,1013.90
2018-10-07T11:22:38.764Z,1013.88
2018-10-07T11:23:38.744Z,1013.77
2018-10-07T11:24:38.726Z,1013.82
2018-10-07T11:25:38.706Z,1013.81
2018-10-07T11:26:38.686Z,1013.82
2018-10-07T11:27:38.670Z,1013.77
2018-10-07T11:28:38.647Z,1013.81
2018-10-07T11:29:38.629Z,1013.76
2018-10-07T11:30:38.608Z,1013.75
2018-10-07T11:31:38.590Z,1013.78
2018-10-07T11:32:38.570Z,1013.75
2018-10-07T11:33:38.552Z,1013.75
2018-10-07T11:34:38.544Z,1013.77
2018-10-07T11:35:38.513Z,1013.79
2018-10-07T11:36:38.495Z,1013.82
2018-10-07T11:37:38.480Z,1013.75
2018-10-07T11:38:38.456Z,1013.77
2018-10-07T11:39:38.437Z,1013.75
2018-10-07T11:40:38.454Z,1013.75
2018-10-07T11:41:38.410Z,1013.78
2018-10-07T11:42:38.380Z,1013.72
2018-10-07T11:43:38.360Z,1013.70
2018-10-07T11:44:38.341Z,1013.75
2018-10-07T11:45:38.324Z,1013.74
2018-10-07T11:46:38.305Z,1013.71
2018-10-07T11:47:38.284Z,1013.74
2018-10-07T11:48:38.264Z,1013.71
2018-10-07T11:49:38.245Z,1013.64
2018-10-07T11:50:38.226Z,1013.58
2018-10-07T11:51:38.209Z,1013.64
2018-10-07T11:52:38.228Z,1013.59
2018-10-07T11:53:38.180Z,1013.60
2018-10-07T11:54:38.150Z,1013.60
2018-10-07T11:55:38.133Z,1013.64
2018-10-07T11:56:38.111Z,1013.61
2018-10-07T11:57:38.097Z,1013.55
2018-10-07T11:58:38.073Z,1013.61
2018-10-07T11:59:38.053Z,1013.66
2018-10-07T12:00:38.039Z,1013.63
2018-10-07T12:01:38.017Z,1013.64
2018-10-07T12:02:38.084Z,1013.63
2018-10-07T12:03:38.016Z,1013.62
2018-10-07T12:04:37.957Z,1013.57
2018-10-07T12:05:37.940Z,1013.51